createdAt,value
2022-08-02T00:00:44.296Z,7.87
2022-08-02T00:03:47.354Z,10.60
2022-08-02T00:06:50.121Z,8.33
2022-08-02T00:09:53.176Z,9.00
2022-08-02T00:12:55.940Z,12.52
2022-08-02T00:15:59.291Z,10.93
2022-08-02T00:19:01.962Z,9.68
2022-08-02T00:22:05.121Z,10.43
2022-08-02T00:25:08.096Z,9.48
2022-08-02T00:28:13.908Z,9.30
2022-08-02T00:31:17.613Z,9.50
2022-08-02T00:34:28.906Z,11.50
2022-08-02T00:37:32.733Z,10.27
2022-08-02T00:40:35.782Z,8.88
2022-08-02T00:43:38.486Z,12.27
2022-08-02T00:46:42.006Z,10.18
2022-08-02T00:49:44.734Z,8.63
2022-08-02T00:52:47.722Z,10.13
2022-08-02T00:55:50.448Z,9.27
2022-08-02T00:58:53.506Z,9.00
2022-08-02T01:01:58.352Z,11.20
2022-08-02T01:05:03.398Z,12.88
2022-08-02T01:08:07.413Z,11.33
2022-08-02T01:11:10.434Z,11.35
2022-08-02T01:14:15.467Z,9.73
2022-08-02T01:17:44.722Z,9.98
2022-08-02T01:21:04.941Z,8.45
2022-08-02T01:24:23.415Z,10.37
2022-08-02T01:27:55.259Z,10.23
2022-08-02T01:31:16.692Z,10.75
2022-08-02T01:34:47.298Z,10.48
2022-08-02T01:37:57.469Z,9.70
2022-08-02T01:41:03.623Z,11.87
2022-08-02T01:44:09.400Z,9.27
2022-08-02T01:47:18.239Z,9.95
2022-08-02T01:50:27.712Z,11.63
2022-08-02T01:53:31.998Z,12.68
2022-08-02T01:56:36.068Z,10.33
2022-08-02T01:59:41.102Z,10.70
2022-08-02T02:02:47.746Z,10.00
2022-08-02T02:05:52.914Z,10.45
2022-08-02T02:08:58.031Z,9.65
2022-08-02T02:12:06.429Z,9.83
2022-08-02T02:15:16.384Z,9.90
2022-08-02T02:18:24.492Z,10.02
2022-08-02T02:21:27.204Z,10.65
2022-08-02T02:24:30.834Z,11.20
2022-08-02T02:27:37.026Z,12.73
2022-08-02T02:30:46.070Z,11.02
2022-08-02T02:33:59.548Z,13.25
2022-08-02T02:37:05.160Z,11.65
2022-08-02T02:40:09.558Z,11.60
2022-08-02T02:43:14.392Z,12.90
2022-08-02T02:46:19.515Z,13.40
2022-08-02T02:49:24.519Z,12.57
2022-08-02T02:52:27.479Z,13.23
2022-08-02T02:55:32.154Z,14.32
2022-08-02T02:58:35.276Z,13.93
2022-08-02T03:01:56.551Z,14.75
2022-08-02T03:05:05.328Z,12.60
2022-08-02T03:08:08.960Z,13.02
2022-08-02T03:11:12.635Z,12.82
2022-08-02T03:14:16.620Z,17.43
2022-08-02T03:17:19.484Z,14.85
2022-08-02T03:20:25.747Z,14.90
2022-08-02T03:23:28.863Z,15.95
2022-08-02T03:26:31.877Z,16.95
2022-08-02T03:29:34.978Z,11.80
2022-08-02T03:32:40.097Z,13.73
2022-08-02T03:35:44.552Z,14.02
2022-08-02T03:38:48.215Z,13.65
2022-08-02T03:41:51.486Z,12.98
2022-08-02T03:44:55.834Z,13.33
2022-08-02T03:47:59.539Z,15.70
2022-08-02T03:51:03.724Z,14.52
2022-08-02T03:54:06.813Z,18.60
2022-08-02T03:57:10.616Z,15.57
2022-08-02T04:00:19.505Z,13.33
2022-08-02T04:03:22.647Z,16.83
2022-08-02T04:06:27.285Z,16.73
2022-08-02T04:09:31.616Z,14.65
2022-08-02T04:12:34.358Z,12.65
2022-08-02T04:15:38.706Z,13.90
2022-08-02T04:18:50.605Z,15.70
2022-08-02T04:21:55.817Z,16.73
2022-08-02T04:25:02.076Z,16.75
2022-08-02T04:28:17.260Z,18.60
2022-08-02T04:31:22.341Z,16.13
2022-08-02T04:34:25.691Z,18.92
2022-08-02T04:37:28.578Z,13.40
2022-08-02T04:40:31.601Z,17.48
2022-08-02T04:43:34.384Z,15.68
2022-08-02T04:46:38.057Z,14.60
2022-08-02T04:49:40.809Z,16.83
2022-08-02T04:52:45.921Z,16.23
2022-08-02T04:55:48.707Z,16.10
2022-08-02T04:58:51.713Z,16.35
2022-08-02T05:01:54.772Z,20.17
2022-08-02T05:04:57.948Z,17.08
2022-08-02T05:08:00.759Z,18.98
2022-08-02T05:11:03.914Z,17.87
2022-08-02T05:14:06.737Z,20.05
2022-08-02T05:17:09.691Z,19.27
2022-08-02T05:20:15.761Z,18.80
2022-08-02T05:23:18.717Z,17.65
2022-08-02T05:26:21.710Z,18.85
2022-08-02T05:29:24.767Z,17.17
2022-08-02T05:32:27.462Z,17.07
2022-08-02T05:35:30.850Z,18.02
2022-08-02T05:38:37.043Z,20.35
2022-08-02T05:41:40.628Z,19.75
2022-08-02T05:44:43.307Z,16.73
2022-08-02T05:47:46.443Z,17.50
2022-08-02T05:50:53.729Z,16.80
2022-08-02T05:54:10.991Z,17.45
2022-08-02T05:57:35.239Z,17.67
2022-08-02T06:00:50.315Z,19.90
2022-08-02T06:03:56.817Z,18.33
2022-08-02T06:07:07.297Z,17.75
2022-08-02T06:10:14.971Z,17.52
2022-08-02T06:13:17.796Z,16.73
2022-08-02T06:16:32.586Z,16.62
2022-08-02T06:19:51.448Z,18.33
2022-08-02T06:22:58.903Z,16.08
2022-08-02T06:26:03.906Z,16.08
2022-08-02T06:29:07.853Z,17.50
2022-08-02T06:32:11.337Z,16.95
2022-08-02T06:35:14.703Z,17.17
2022-08-02T06:38:27.583Z,17.45
2022-08-02T06:41:42.612Z,15.65
2022-08-02T06:44:51.895Z,19.08
2022-08-02T06:47:58.519Z,17.02
2022-08-02T06:51:05.448Z,14.77
2022-08-02T06:54:08.510Z,14.73
2022-08-02T06:57:11.241Z,17.37
2022-08-02T07:00:14.731Z,15.40
2022-08-02T07:03:18.160Z,11.65
2022-08-02T07:06:21.110Z,12.60
2022-08-02T07:09:23.862Z,13.25
2022-08-02T07:12:27.536Z,14.73
2022-08-02T07:15:30.407Z,12.15
2022-08-02T07:18:35.152Z,12.88
2022-08-02T07:21:57.824Z,14.27
2022-08-02T07:25:00.890Z,12.13
2022-08-02T07:28:04.136Z,11.15
2022-08-02T07:31:07.163Z,11.02
2022-08-02T07:34:09.948Z,9.60
2022-08-02T07:37:34.987Z,8.67
2022-08-02T07:40:37.048Z,10.23
2022-08-02T07:43:40.085Z,9.55
2022-08-02T07:46:42.797Z,9.35
2022-08-02T07:49:45.789Z,9.23
2022-08-02T07:52:49.596Z,9.60
2022-08-02T07:56:00.235Z,11.15
2022-08-02T07:59:03.989Z,9.68
2022-08-02T08:02:07.132Z,10.93
2022-08-02T08:05:10.366Z,9.40
2022-08-02T08:08:17.375Z,6.90
2022-08-02T08:11:20.908Z,7.25
2022-08-02T08:14:23.645Z,8.68
2022-08-02T08:17:27.037Z,7.75
2022-08-02T08:20:29.732Z,7.00
2022-08-02T08:23:32.938Z,7.13
2022-08-02T08:26:35.639Z,7.75
2022-08-02T08:29:38.526Z,6.57
2022-08-02T08:32:41.263Z,5.93
2022-08-02T08:35:44.258Z,6.95
2022-08-02T08:38:48.022Z,6.07
2022-08-02T08:41:51.433Z,7.57
2022-08-02T08:44:57.318Z,6.32
2022-08-02T08:48:06.696Z,7.87
2022-08-02T08:51:16.826Z,7.97
2022-08-02T08:54:24.622Z,7.50
2022-08-02T08:57:30.280Z,10.73
2022-08-02T09:00:35.764Z,8.00
2022-08-02T09:03:38.469Z,6.53
2022-08-02T09:06:41.645Z,7.50
2022-08-02T09:09:44.330Z,9.03
2022-08-02T09:13:37.504Z,6.50
2022-08-02T09:16:40.886Z,6.95
2022-08-02T09:19:45.746Z,7.15
2022-08-02T09:23:09.240Z,6.47
2022-08-02T09:26:14.534Z,6.43
2022-08-02T09:29:18.631Z,7.18
2022-08-02T09:32:24.590Z,7.55
2022-08-02T09:36:05.978Z,6.75
2022-08-02T09:38:58.942Z,5.50
2022-08-02T09:42:10.984Z,5.83
2022-08-02T09:45:14.380Z,6.15
2022-08-02T09:48:17.149Z,5.28
2022-08-02T09:51:29.371Z,7.95
2022-08-02T09:54:33.148Z,5.72
2022-08-02T09:57:38.839Z,4.63
2022-08-02T10:00:56.358Z,4.37
2022-08-02T10:04:01.772Z,5.70
2022-08-02T10:07:05.215Z,4.35
2022-08-02T10:10:08.940Z,5.10
2022-08-02T10:13:11.815Z,4.77
2022-08-02T10:16:24.920Z,4.30
2022-08-02T10:20:03.475Z,4.40
2022-08-02T10:22:51.782Z,4.18
2022-08-02T10:26:00.260Z,4.25
2022-08-02T10:29:03.591Z,3.87
2022-08-02T10:32:11.133Z,4.40
2022-08-02T10:35:26.009Z,3.60
2022-08-02T10:38:29.891Z,3.55
2022-08-02T10:41:51.852Z,5.60
2022-08-02T10:45:10.427Z,3.80
2022-08-02T10:48:14.833Z,5.18
2022-08-02T10:51:17.621Z,4.20
2022-08-02T10:54:32.410Z,3.92
2022-08-02T10:57:38.109Z,4.75
2022-08-02T11:00:41.169Z,3.67
2022-08-02T11:03:45.240Z,4.10
2022-08-02T11:07:14.387Z,3.90
2022-08-02T11:10:39.644Z,4.70
2022-08-02T11:14:02.609Z,4.35
2022-08-02T11:17:17.288Z,4.70
2022-08-02T11:20:22.341Z,5.78
2022-08-02T11:23:44.861Z,4.40
2022-08-02T11:26:51.285Z,5.28
2022-08-02T11:29:53.931Z,3.40
2022-08-02T11:32:58.572Z,3.80
2022-08-02T11:36:03.947Z,3.12
2022-08-02T11:39:15.910Z,4.45
2022-08-02T11:42:18.843Z,4.07
2022-08-02T11:45:29.752Z,4.25
2022-08-02T11:48:32.712Z,3.83
2022-08-02T11:51:35.766Z,3.65
2022-08-02T11:54:40.954Z,3.75
2022-08-02T11:58:04.553Z,4.78
2022-08-02T12:01:06.906Z,4.30
2022-08-02T12:04:10.458Z,3.47
2022-08-02T12:07:14.929Z,3.30
2022-08-02T12:10:24.272Z,4.12
2022-08-02T12:13:26.924Z,5.57
2022-08-02T12:16:55.177Z,3.97
2022-08-02T12:19:59.195Z,5.33
2022-08-02T12:23:05.610Z,8.02
2022-08-02T12:26:15.922Z,3.42
2022-08-02T12:29:55.719Z,3.47
2022-08-02T12:33:12.969Z,5.32
2022-08-02T12:36:24.641Z,6.60
2022-08-02T12:39:43.259Z,2.90
2022-08-02T12:42:51.919Z,3.75
2022-08-02T12:45:58.701Z,3.10
2022-08-02T12:49:17.491Z,3.75
2022-08-02T12:52:22.796Z,4.03
2022-08-02T12:56:01.905Z,5.15
2022-08-02T12:58:52.238Z,3.85
2022-08-02T13:02:02.286Z,3.00
2022-08-02T13:05:05.876Z,3.95
2022-08-02T13:08:08.912Z,2.73
2022-08-02T13:11:11.674Z,2.80
2022-08-02T13:14:16.192Z,3.37
2022-08-02T13:17:19.112Z,3.87
2022-08-02T13:20:22.107Z,3.58
2022-08-02T13:23:54.291Z,3.47
2022-08-02T13:26:50.100Z,3.03
2022-08-02T13:29:54.314Z,3.75
2022-08-02T13:33:00.963Z,4.20
2022-08-02T13:36:05.043Z,3.65
2022-08-02T13:39:12.900Z,3.20
2022-08-02T13:42:16.876Z,4.00
2022-08-02T13:45:20.293Z,3.95
2022-08-02T13:48:26.682Z,3.95
2022-08-02T13:51:29.768Z,3.53
2022-08-02T13:54:32.804Z,3.50
2022-08-02T13:57:35.807Z,4.32
2022-08-02T14:00:38.585Z,3.40
2022-08-02T14:04:08.965Z,3.97
2022-08-02T14:07:06.229Z,3.30
2022-08-02T14:10:09.856Z,4.53
2022-08-02T14:13:12.640Z,4.25
2022-08-02T14:16:15.816Z,3.30
2022-08-02T14:19:18.565Z,4.00
2022-08-02T14:22:22.080Z,3.92
2022-08-02T14:25:26.214Z,4.17
2022-08-02T14:28:30.551Z,4.12
2022-08-02T14:31:33.293Z,3.10
2022-08-02T14:34:36.152Z,3.35
2022-08-02T14:37:38.878Z,5.47
2022-08-02T14:40:42.881Z,4.00
2022-08-02T14:44:04.085Z,3.50
2022-08-02T14:47:07.091Z,6.22
2022-08-02T14:50:11.268Z,4.07
2022-08-02T14:53:14.391Z,3.25
2022-08-02T14:56:17.089Z,4.03
2022-08-02T14:59:22.106Z,4.47
2022-08-02T15:02:26.442Z,3.67
2022-08-02T15:05:29.422Z,3.58
2022-08-02T15:08:32.163Z,3.40
2022-08-02T15:11:48.350Z,3.10
2022-08-02T15:14:52.467Z,3.45
2022-08-02T15:17:56.720Z,3.92
2022-08-02T15:20:59.409Z,4.60
2022-08-02T15:24:02.407Z,3.83
2022-08-02T15:27:05.043Z,3.63
2022-08-02T15:30:09.158Z,2.87
2022-08-02T15:33:12.787Z,3.25
2022-08-02T15:36:16.945Z,3.28
2022-08-02T15:39:19.831Z,3.30
2022-08-02T15:42:30.234Z,3.00
2022-08-02T15:45:35.359Z,3.00
2022-08-02T15:48:39.454Z,5.57
2022-08-02T15:51:42.008Z,4.80
2022-08-02T15:54:44.972Z,3.28
2022-08-02T15:57:47.684Z,2.77
2022-08-02T16:00:50.790Z,3.40
2022-08-02T16:03:53.858Z,3.20
2022-08-02T16:06:57.534Z,3.30
2022-08-02T16:10:04.944Z,2.87
2022-08-02T16:13:26.032Z,3.07
2022-08-02T16:16:31.959Z,5.53
2022-08-02T16:19:49.130Z,3.47
2022-08-02T16:22:53.518Z,3.00
2022-08-02T16:25:56.179Z,3.10
2022-08-02T16:29:00.632Z,3.13
2022-08-02T16:32:04.312Z,3.10
2022-08-02T16:35:09.189Z,3.12
2022-08-02T16:38:12.140Z,3.50
2022-08-02T16:41:16.372Z,4.93
2022-08-02T16:44:27.611Z,3.00
2022-08-02T16:47:43.466Z,4.97
2022-08-02T16:50:56.229Z,3.75
2022-08-02T16:54:01.138Z,3.28
2022-08-02T16:57:05.230Z,5.43
2022-08-02T17:00:10.361Z,3.33
2022-08-02T17:03:14.311Z,3.22
2022-08-02T17:06:18.346Z,3.00
2022-08-02T17:10:03.410Z,3.40
2022-08-02T17:12:44.525Z,3.10
2022-08-02T17:16:16.499Z,3.00
2022-08-02T17:19:18.071Z,4.18
2022-08-02T17:22:20.873Z,3.17
2022-08-02T17:25:24.772Z,3.87
2022-08-02T17:28:31.430Z,2.90
2022-08-02T17:31:42.908Z,4.03
2022-08-02T17:34:56.364Z,4.40
2022-08-02T17:38:03.113Z,4.93
2022-08-02T17:41:15.283Z,5.10
2022-08-02T17:44:37.215Z,4.22
2022-08-02T17:47:42.008Z,3.17
2022-08-02T17:50:48.851Z,4.25
2022-08-02T17:53:51.694Z,3.12
2022-08-02T17:56:54.944Z,3.95
2022-08-02T18:00:03.595Z,5.93
2022-08-02T18:03:07.898Z,3.73
2022-08-02T18:06:13.328Z,3.28
2022-08-02T18:09:17.677Z,3.47
2022-08-02T18:12:21.014Z,8.82
2022-08-02T18:15:23.798Z,3.20
2022-08-02T18:18:29.682Z,3.57
2022-08-02T18:21:33.106Z,4.72
2022-08-02T18:24:37.584Z,3.10
2022-08-02T18:27:41.944Z,3.75
2022-08-02T18:30:46.101Z,3.28
2022-08-02T18:33:58.636Z,4.23
2022-08-02T18:37:04.801Z,4.07
2022-08-02T18:40:09.985Z,5.62
2022-08-02T18:43:14.391Z,3.65
2022-08-02T18:46:21.095Z,3.00
2022-08-02T18:49:30.094Z,3.77
2022-08-02T18:52:54.240Z,6.07
2022-08-02T18:56:03.231Z,4.97
2022-08-02T18:59:07.754Z,5.32
2022-08-02T19:02:11.473Z,4.03
2022-08-02T19:05:14.552Z,3.30
2022-08-02T19:08:18.620Z,4.20
2022-08-02T19:11:21.609Z,6.37
2022-08-02T19:14:27.728Z,5.78
2022-08-02T19:17:53.872Z,6.20
2022-08-02T19:20:58.237Z,3.70
2022-08-02T19:24:04.836Z,6.03
2022-08-02T19:27:13.814Z,4.72
2022-08-02T19:30:18.948Z,6.93
2022-08-02T19:34:06.711Z,8.07
2022-08-02T19:36:48.800Z,6.10
2022-08-02T19:39:52.397Z,3.97
2022-08-02T19:44:24.725Z,5.22
2022-08-02T19:46:23.118Z,5.03
2022-08-02T19:49:39.921Z,5.53
2022-08-02T19:52:47.417Z,5.40
2022-08-02T19:55:59.802Z,6.50
2022-08-02T19:59:13.390Z,4.20
2022-08-02T20:02:18.410Z,4.12
2022-08-02T20:05:24.024Z,6.22
2022-08-02T20:08:31.627Z,4.13
2022-08-02T20:11:41.605Z,5.25
2022-08-02T20:14:51.301Z,3.70
2022-08-02T20:17:54.650Z,5.68
2022-08-02T20:20:58.669Z,4.00
2022-08-02T20:24:03.477Z,8.37
2022-08-02T20:27:16.322Z,5.72
2022-08-02T20:30:20.255Z,5.68
2022-08-02T20:33:29.359Z,4.30
2022-08-02T20:36:34.788Z,5.43
2022-08-02T20:39:43.114Z,4.40
2022-08-02T20:42:47.962Z,8.07
2022-08-02T20:45:51.241Z,4.65
2022-08-02T20:48:55.245Z,6.40
2022-08-02T20:52:02.179Z,7.03
2022-08-02T20:55:05.642Z,6.37
2022-08-02T20:58:11.829Z,8.43
2022-08-02T21:01:15.003Z,7.90
2022-08-02T21:04:19.240Z,7.45
2022-08-02T21:07:25.603Z,8.00
2022-08-02T21:10:29.677Z,5.97
2022-08-02T21:13:32.842Z,5.10
2022-08-02T21:16:35.977Z,9.93
2022-08-02T21:19:44.339Z,7.07
2022-08-02T21:22:47.067Z,6.35
2022-08-02T21:25:57.406Z,6.97
2022-08-02T21:29:03.465Z,9.05
2022-08-02T21:32:07.384Z,5.87
2022-08-02T21:35:10.869Z,7.97
2022-08-02T21:38:35.159Z,6.45
2022-08-02T21:41:46.210Z,6.10
2022-08-02T21:44:51.493Z,4.65
2022-08-02T21:47:54.043Z,6.25
2022-08-02T21:50:58.614Z,8.32
2022-08-02T21:54:17.407Z,6.32
2022-08-02T21:57:23.219Z,5.50
2022-08-02T22:00:28.791Z,6.07
2022-08-02T22:03:32.640Z,5.25
2022-08-02T22:06:35.745Z,4.47
2022-08-02T22:09:43.340Z,5.82
2022-08-02T22:12:48.281Z,3.80
2022-08-02T22:15:51.386Z,5.47
2022-08-02T22:18:55.088Z,5.60
2022-08-02T22:22:00.600Z,4.68
2022-08-02T22:25:04.207Z,6.37
2022-08-02T22:28:37.714Z,4.43
2022-08-02T22:31:40.831Z,8.23
2022-08-02T22:34:52.100Z,5.18
2022-08-02T22:38:14.569Z,6.70
2022-08-02T22:41:22.701Z,4.50
2022-08-02T22:44:25.319Z,4.43
2022-08-02T22:47:28.286Z,4.28
2022-08-02T22:50:41.406Z,7.70
2022-08-02T22:53:45.559Z,5.78
2022-08-02T22:56:48.206Z,4.68
2022-08-02T22:59:51.584Z,5.67
2022-08-02T23:02:55.558Z,5.43
2022-08-02T23:05:58.629Z,8.18
2022-08-02T23:09:01.297Z,7.22
2022-08-02T23:12:04.795Z,7.25
2022-08-02T23:15:09.217Z,6.03
2022-08-02T23:18:30.857Z,7.53
2022-08-02T23:22:01.391Z,5.15
2022-08-02T23:24:56.661Z,6.78
2022-08-02T23:27:59.347Z,11.88
2022-08-02T23:31:28.864Z,6.83
2022-08-02T23:34:31.484Z,6.40
2022-08-02T23:38:00.276Z,6.45
2022-08-02T23:40:58.099Z,6.28
2022-08-02T23:44:13.493Z,7.18
2022-08-02T23:47:17.459Z,8.20
2022-08-02T23:50:20.688Z,7.25
2022-08-02T23:53:23.309Z,6.20
2022-08-02T23:56:26.306Z,6.85
2022-08-02T23:59:29.942Z,5.35
